Aérodrome :
LOGIN :

S'inscrire | Disclaimer

   EN    FR    IT 

 










Légende :    VFR   VFR Marginal   IFR   IFR Intensif   IFR Très Intensif
Visi : 
Plafond : 
>= 8 km
>= 3000ft
5 à 8 km
1000 à 3000 ft
1500m à 5 km
500 à 1000 ft
800 à 1500m
200 à 500 ft
< 800m
< 200 ft
Symboles :   Orages  Brouillard  Fortes neiges  Fortes précipitations  Vent > 20 kt
SIGMETs :   Divers  Orages  Givrage  Turbulence  Onde Orograph.  Cendres Volcan.






- Altitude de l'aérodrome : 32 ft
- Code IATA : LKZ


EGUL - RAF Lakenheath

DERNIER METAR :
  • 241255Z 24022G29KT 9000 -RA OVC016 11/10 A2959 RMK PK WND 21031/01 RAB13E42RAB45 SLP024 P0001 T01130099 $

METARs EXPIRÉS :
  • 241155Z 22020G29KT 9999 BKN015 OVC021 11/10 A2961 RMK PK WND 23029/42 RAE1056RAB31E43 SLP031 P0000 60004 70005 T01110100 10111 20045 $
  • 241058Z COR 23020G28KT 9000 -SHRA BKN014 BKN018 11/09 A2964 RMK AO2A RAE56 PRESFR SLP041 RVRNO $ COR 1103

TAF TAF EGUL
Valide du 24 à 13h jusqu'au 25 à 19h UTC


2413/2519 24025G35KT 9000 -SHRA BKN015 BKN020 510003 QNH2953INS
BECMG 2421/2422 26015G25KT 9999 NSW SCT025 QNH2948INS
BECMG 2508/2509 26015G25KT 9999 BKN025 QNH2947INS
TEMPO 2511/2515 26025G35KT 8000 -SHRA BKN020 BKN050
BECMG 2516/2517 26012G18KT 9999 NSW SCT030 QNH2943INS TX11/2414Z TN04/2505Z



MET'MAP, la Météo Aéronautique d'un coup d'oeil ! - Copyright ORBIFLY Décembre 2007 - Disclaimer

ORBIFLY MET'MAP TEAM :

Programmation & Développement : Alexandra Zaïnal
Sur une idée originale de : Baudouin d'Aumeries
Assistance à la programmation : Marc-Olivier Méhu
Soutien technique & logistique : Manuel Goepfert

Contact : metmap@orbifly.com




SOURCES & CREDITS :

   NOAA